Time;durP1;ratioP1;P1;durP2;ratioP2;P2;SDS_P1;SDS_P2;PMS_P1;PMS_P2;Temp;Humidity;BMP_temperature;BMP_pressure;BME280_temperature;BME280_humidity;BME280_pressure;Samples;Min_cycle;Max_cycle;Signal;HPM_P1;HPM_P2
2020/12/14 00:02:47;;;;;;;88.57;31.75;;;;;;;4.88;86.51;101049.50;10119017;28;20060;-70
2020/12/14 00:07:44;;;;;;;62.10;28.27;;;;;;;4.93;87.29;101051.41;10138559;28;20054;-70
2020/12/14 00:12:40;;;;;;;67.80;28.02;;;;;;;4.91;86.70;101050.88;10121357;28;20051;-69
2020/12/14 00:17:36;;;;;;;56.47;27.48;;;;;;;4.98;86.62;101065.75;10124469;28;20167;-72
2020/12/14 00:22:33;;;;;;;57.25;27.00;;;;;;;4.99;86.15;101067.41;10128258;28;20558;-71
2020/12/14 00:27:29;;;;;;;56.58;27.38;;;;;;;5.06;86.35;101069.84;10122241;28;20475;-67
2020/12/14 00:32:25;;;;;;;54.03;26.80;;;;;;;5.10;86.50;101079.03;10106234;28;20074;-70
2020/12/14 00:37:22;;;;;;;56.85;26.88;;;;;;;5.11;86.26;101080.66;10116055;28;20459;-70
2020/12/14 00:42:18;;;;;;;54.55;25.08;;;;;;;5.09;86.07;101079.31;10130854;28;20508;-70
2020/12/14 00:47:16;;;;;;;56.78;27.27;;;;;;;5.05;86.31;101068.19;10136567;28;20050;-69
2020/12/14 00:52:12;;;;;;;55.00;26.42;;;;;;;5.16;86.36;101066.31;10137849;28;20084;-68
2020/12/14 00:57:11;;;;;;;51.88;25.45;;;;;;;5.18;85.86;101075.78;10139660;28;20503;-70
2020/12/14 01:02:07;;;;;;;55.28;26.17;;;;;;;5.15;86.05;101075.50;10137835;28;20054;-68
2020/12/14 01:07:03;;;;;;;48.47;25.55;;;;;;;5.18;85.96;101070.34;10119954;28;20050;-72
2020/12/14 01:12:02;;;;;;;57.30;26.85;;;;;;;5.13;86.16;101075.78;10120581;28;20520;-71
2020/12/14 01:16:58;;;;;;;46.20;25.02;;;;;;;5.17;85.75;101055.16;10123803;28;20054;-69
2020/12/14 01:21:55;;;;;;;50.75;26.60;;;;;;;4.99;86.67;101024.03;10122961;28;20057;-69
2020/12/14 01:26:51;;;;;;;48.10;24.25;;;;;;;5.05;86.04;101001.25;10112342;28;20105;-69
2020/12/14 01:31:47;;;;;;;49.17;26.35;;;;;;;4.99;86.25;100988.81;10129537;28;20521;-71
2020/12/14 01:36:47;;;;;;;51.25;25.02;;;;;;;4.91;86.84;100988.53;10125579;28;20061;-70
2020/12/14 01:41:43;;;;;;;47.53;25.02;;;;;;;4.88;86.91;100979.06;10132678;28;20074;-68
2020/12/14 01:46:42;;;;;;;47.92;24.65;;;;;;;4.91;86.99;100983.13;10123298;28;20058;-70
2020/12/14 01:51:39;;;;;;;46.78;24.83;;;;;;;4.93;86.26;100980.97;10122992;28;20134;-70
2020/12/14 01:56:35;;;;;;;45.03;24.23;;;;;;;4.84;86.36;100967.94;10127312;28;20078;-70
2020/12/14 02:01:31;;;;;;;44.97;24.58;;;;;;;4.93;86.54;100964.69;10104324;28;20058;-69
2020/12/14 02:06:27;;;;;;;43.90;22.55;;;;;;;4.86;86.81;100962.25;10115292;28;20058;-69
2020/12/14 02:11:23;;;;;;;46.60;22.65;;;;;;;4.78;86.90;100963.63;10105564;28;20059;-68
2020/12/14 02:16:19;;;;;;;44.53;24.20;;;;;;;4.75;86.89;100964.16;10121386;28;20058;-68
2020/12/14 02:21:16;;;;;;;46.10;23.98;;;;;;;4.71;86.95;100963.09;10126087;28;20070;-69
2020/12/14 02:26:12;;;;;;;45.88;25.15;;;;;;;4.73;87.08;100966.34;10131307;28;20050;-70
2020/12/14 02:31:08;;;;;;;47.78;23.70;;;;;;;4.77;86.79;100970.13;10131455;28;20070;-70
2020/12/14 02:36:04;;;;;;;43.88;25.13;;;;;;;4.73;86.88;100981.78;10112860;28;20046;-70
2020/12/14 02:41:00;;;;;;;44.03;25.00;;;;;;;4.67;87.43;100972.84;10122224;28;20062;-70
2020/12/14 02:45:56;;;;;;;48.45;25.33;;;;;;;4.62;86.84;100964.75;10130253;28;20511;-69
2020/12/14 02:50:52;;;;;;;47.25;24.05;;;;;;;4.52;86.73;100940.34;10129512;28;20073;-69
2020/12/14 02:55:48;;;;;;;42.55;24.10;;;;;;;4.54;86.62;100935.47;10130117;28;20499;-69
2020/12/14 03:00:46;;;;;;;44.10;24.83;;;;;;;4.48;87.57;100936.56;10131757;28;20573;-69
2020/12/14 03:05:42;;;;;;;46.33;24.52;;;;;;;4.37;86.79;100931.16;10132421;28;20058;-70
2020/12/14 03:10:38;;;;;;;44.13;24.92;;;;;;;4.38;86.97;100927.34;10123192;28;20058;-70
2020/12/14 03:15:34;;;;;;;44.30;24.30;;;;;;;4.28;87.58;100926.56;10129097;28;20071;-70
2020/12/14 03:20:30;;;;;;;47.97;23.65;;;;;;;4.33;86.92;100935.47;10128092;28;20054;-71
2020/12/14 03:25:26;;;;;;;45.38;23.95;;;;;;;4.32;86.76;100931.16;10121057;28;20831;-70
2020/12/14 03:30:22;;;;;;;45.20;23.35;;;;;;;4.36;86.96;100916.00;10133581;28;20050;-70
2020/12/14 03:35:18;;;;;;;39.75;22.33;;;;;;;4.26;87.05;100918.69;10130673;28;20084;-69
2020/12/14 03:40:15;;;;;;;37.80;21.98;;;;;;;4.29;86.99;100918.16;10137264;28;20050;-70
2020/12/14 03:45:11;;;;;;;41.38;22.42;;;;;;;4.30;86.68;100908.16;10146601;28;20050;-69
2020/12/14 03:50:07;;;;;;;39.10;19.48;;;;;;;4.33;87.23;100894.06;10142054;28;20046;-70
2020/12/14 03:55:04;;;;;;;33.28;19.70;;;;;;;4.30;86.71;100892.72;10131509;28;20502;-70
2020/12/14 03:59:59;;;;;;;36.25;20.85;;;;;;;4.30;86.61;100887.31;10129897;28;20105;-70
2020/12/14 04:04:55;;;;;;;35.67;20.20;;;;;;;4.26;86.41;100874.59;10130353;28;20661;-70
2020/12/14 04:09:51;;;;;;;34.05;20.58;;;;;;;4.30;85.85;100884.59;10131898;28;20137;-70
2020/12/14 04:14:47;;;;;;;32.55;19.05;;;;;;;4.36;86.49;100886.22;10134257;28;20050;-71
2020/12/14 04:19:44;;;;;;;30.17;18.08;;;;;;;4.33;86.51;100896.78;10139669;28;20042;-70
2020/12/14 04:24:39;;;;;;;27.85;17.65;;;;;;;4.37;85.74;100898.66;10123508;28;20055;-70
2020/12/14 04:29:35;;;;;;;27.83;15.88;;;;;;;4.38;85.50;100900.28;10121982;28;20050;-70
2020/12/14 04:34:31;;;;;;;30.95;16.00;;;;;;;4.48;85.38;100910.31;10127844;28;20085;-70
2020/12/14 04:39:28;;;;;;;33.65;17.08;;;;;;;4.54;85.14;100916.53;10128734;28;20060;-69
2020/12/14 04:44:24;;;;;;;25.83;15.85;;;;;;;4.54;84.49;100908.41;10127622;28;20062;-69
2020/12/14 04:49:20;;;;;;;26.30;15.65;;;;;;;4.54;84.84;100908.41;10134294;28;20071;-69
2020/12/14 04:54:19;;;;;;;23.40;14.35;;;;;;;4.57;84.75;100907.84;10136800;28;20557;-69
2020/12/14 04:59:15;;;;;;;27.63;15.15;;;;;;;4.55;84.38;100901.88;10129296;28;20070;-68
2020/12/14 05:04:11;;;;;;;25.02;14.63;;;;;;;4.61;84.52;100893.50;10111374;28;20061;-68
2020/12/14 05:09:16;;;;;;;24.25;13.77;;;;;;;4.64;83.84;100881.28;10121585;28;20101;-69
2020/12/14 05:14:20;;;;;;;23.50;14.98;;;;;;;4.63;83.50;100863.44;10132850;28;20050;-69
2020/12/14 05:19:22;;;;;;;23.00;13.98;;;;;;;4.67;83.49;100864.50;10137128;28;20054;-69
2020/12/14 05:24:24;;;;;;;24.20;14.25;;;;;;;4.63;83.76;100868.84;10135393;28;20050;-69
2020/12/14 05:29:23;;;;;;;23.67;13.05;;;;;;;4.60;83.39;100864.00;10121625;28;20055;-69
2020/12/14 05:34:19;;;;;;;23.90;13.48;;;;;;;4.46;83.39;100868.34;10132916;28;20061;-70
2020/12/14 05:39:27;;;;;;;17.92;11.50;;;;;;;4.41;83.38;100861.84;10138729;28;20117;-70
2020/12/14 05:44:26;;;;;;;22.52;12.23;;;;;;;4.49;83.15;100856.97;10135096;28;20111;-70
2020/12/14 05:49:25;;;;;;;21.10;11.57;;;;;;;4.49;83.38;100846.13;10120742;28;20058;-69
2020/12/14 05:54:24;;;;;;;20.27;11.25;;;;;;;4.53;82.69;100853.44;10101630;28;20066;-69
2020/12/14 05:59:20;;;;;;;18.10;11.18;;;;;;;4.63;82.93;100848.00;10131171;28;20112;-69
2020/12/14 06:04:18;;;;;;;17.80;10.25;;;;;;;4.68;82.09;100843.66;10132017;28;20061;-69
2020/12/14 06:09:21;;;;;;;18.10;11.40;;;;;;;4.80;82.41;100858.53;10134970;28;20053;-69
2020/12/14 06:14:19;;;;;;;17.93;10.20;;;;;;;4.82;81.64;100861.75;10135115;28;20054;-69
2020/12/14 06:19:15;;;;;;;16.73;9.65;;;;;;;4.84;82.25;100862.28;10134683;28;20104;-69
2020/12/14 06:24:21;;;;;;;14.23;8.85;;;;;;;4.79;82.01;100856.88;10129037;28;20109;-69
2020/12/14 06:29:34;;;;;;;18.50;9.88;;;;;;;4.87;81.50;100846.56;10136373;28;20053;-70
2020/12/14 06:34:33;;;;;;;16.98;9.93;;;;;;;4.84;81.38;100843.31;10129618;28;20668;-69
2020/12/14 06:39:37;;;;;;;14.73;9.65;;;;;;;4.81;81.21;100833.03;10124728;28;20051;-69
2020/12/14 06:44:35;;;;;;;21.15;11.85;;;;;;;4.83;81.49;100808.41;10119934;28;20054;-71
2020/12/14 06:49:32;;;;;;;18.30;9.95;;;;;;;4.78;81.04;100821.94;10138095;28;20108;-69
2020/12/14 06:54:47;;;;;;;17.95;9.73;;;;;;;4.75;81.57;100812.47;10132022;28;20507;-71
2020/12/14 06:59:51;;;;;;;18.95;9.95;;;;;;;4.74;80.80;100816.28;10104663;28;20046;-70
2020/12/14 07:04:47;;;;;;;;;;;;;;;4.68;81.10;100825.50;10126912;28;20050;-68
2020/12/14 07:09:43;;;;;;;16.08;9.10;;;;;;;4.65;81.27;100817.94;10131974;28;19929;-71
2020/12/14 07:14:53;;;;;;;15.30;9.75;;;;;;;4.64;81.57;100811.72;10128933;28;20058;-71
2020/12/14 07:19:50;;;;;;;17.88;9.63;;;;;;;4.76;81.43;100814.09;10126388;28;20078;-69
2020/12/14 07:25:05;;;;;;;14.00;9.18;;;;;;;4.80;80.59;100826.03;10123610;28;20055;-69
2020/12/14 07:30:10;;;;;;;14.82;8.30;;;;;;;4.89;80.58;100820.00;10120084;28;20105;-69
2020/12/14 07:35:08;;;;;;;16.02;9.00;;;;;;;4.88;80.19;100823.81;10123562;28;20061;-69
2020/12/14 07:40:12;;;;;;;17.40;8.98;;;;;;;4.95;80.50;100824.34;10126512;28;20184;-68
2020/12/14 07:45:14;;;;;;;16.48;10.00;;;;;;;4.93;80.34;100823.81;10133178;28;20585;-71
2020/12/14 07:50:24;;;;;;;14.82;9.25;;;;;;;4.92;79.79;100843.84;10136371;28;20080;-69
2020/12/14 07:55:26;;;;;;;14.25;8.50;;;;;;;4.98;79.88;100845.44;10127229;28;20222;-70
2020/12/14 08:00:24;;;;;;;16.17;8.95;;;;;;;5.06;80.03;100850.31;10142163;28;20054;-70
2020/12/14 08:05:20;;;;;;;13.65;8.27;;;;;;;5.02;79.92;100841.91;10142050;28;20815;-70
2020/12/14 08:10:20;;;;;;;15.80;9.05;;;;;;;5.04;79.27;100828.09;10139158;28;20089;-69
2020/12/14 08:15:18;;;;;;;14.38;8.50;;;;;;;5.03;80.16;100826.44;10128767;28;20141;-69
2020/12/14 08:20:34;;;;;;;12.55;7.72;;;;;;;5.15;79.54;100821.53;10132405;28;20130;-70
2020/12/14 08:25:32;;;;;;;11.93;7.20;;;;;;;5.17;79.27;100824.75;10123643;28;20060;-69
2020/12/14 08:30:31;;;;;;;11.65;7.53;;;;;;;5.19;79.02;100800.09;10124996;28;20077;-70
2020/12/14 08:35:27;;;;;;;10.95;7.32;;;;;;;5.30;79.00;100817.91;10111465;28;20065;-69
2020/12/14 08:40:23;;;;;;;14.40;8.02;;;;;;;5.32;78.44;100814.94;10102995;28;22376;-70
2020/12/14 08:45:19;;;;;;;14.13;8.00;;;;;;;5.39;79.12;100816.25;10117530;28;20162;-71
2020/12/14 08:50:17;;;;;;;10.98;6.95;;;;;;;5.37;78.67;100801.34;10128148;28;20147;-72
2020/12/14 08:55:13;;;;;;;11.25;7.55;;;;;;;5.50;78.26;100808.88;10138843;28;20471;-72
2020/12/14 09:00:13;;;;;;;11.07;6.70;;;;;;;5.47;78.31;100795.84;10128741;28;20046;-70
2020/12/14 09:05:16;;;;;;;9.98;6.35;;;;;;;5.56;77.97;100788.72;10118278;28;20059;-71
2020/12/14 09:10:17;;;;;;;10.68;6.47;;;;;;;5.55;77.88;100784.41;10140842;28;20488;-72
2020/12/14 09:15:13;;;;;;;12.95;6.57;;;;;;;5.64;77.73;100784.59;10117160;28;20101;-71
2020/12/14 09:20:09;;;;;;;10.35;6.15;;;;;;;5.60;77.99;100784.38;10136247;28;20058;-71
2020/12/14 09:25:06;;;;;;;9.80;6.10;;;;;;;5.64;77.80;100790.84;10137001;28;20121;-71
2020/12/14 09:30:02;;;;;;;10.50;6.30;;;;;;;5.66;77.79;100782.41;10138100;28;20057;-71
2020/12/14 09:34:58;;;;;;;9.82;6.53;;;;;;;5.71;77.92;100785.13;10124125;28;20054;-70
2020/12/14 09:39:54;;;;;;;10.77;6.13;;;;;;;5.69;77.51;100793.53;10115165;28;20050;-72
2020/12/14 09:44:50;;;;;;;8.43;5.40;;;;;;;5.87;77.03;100799.34;10126709;28;20078;-67
2020/12/14 09:49:47;;;;;;;9.30;5.55;;;;;;;5.82;77.22;100788.53;10130080;28;20046;-72
2020/12/14 09:54:43;;;;;;;8.95;5.07;;;;;;;5.85;77.12;100790.69;10130559;28;20149;-72
2020/12/14 09:59:40;;;;;;;8.57;5.18;;;;;;;6.04;77.70;100783.50;10126544;28;20057;-70
2020/12/14 10:04:37;;;;;;;9.48;5.80;;;;;;;6.06;78.03;100781.31;10135056;28;20060;-72
2020/12/14 10:09:33;;;;;;;9.82;5.75;;;;;;;6.04;79.43;100778.06;10130818;28;20443;-72
2020/12/14 10:14:29;;;;;;;9.10;5.60;;;;;;;5.90;80.08;100786.03;10121725;28;20046;-68
2020/12/14 10:19:25;;;;;;;11.77;6.80;;;;;;;5.62;83.73;100792.25;10105468;28;20086;-71
2020/12/14 10:24:26;;;;;;;12.05;6.40;;;;;;;5.77;83.60;100777.72;10104946;28;20214;-72
2020/12/14 10:29:23;;;;;;;16.13;6.32;;;;;;;5.74;84.39;100778.31;10102272;28;20120;-73
2020/12/14 10:34:20;;;;;;;13.25;5.07;;;;;;;5.69;84.72;100796.25;10102554;28;20058;-72
2020/12/14 10:39:16;;;;;;;10.63;6.20;;;;;;;5.62;85.44;100787.63;10105665;28;20046;-69
2020/12/14 10:44:12;;;;;;;14.98;6.28;;;;;;;5.60;86.01;100784.38;10138147;28;20049;-70
2020/12/14 10:49:10;;;;;;;13.77;6.30;;;;;;;5.64;86.36;100761.00;10138534;28;20042;-69
2020/12/14 10:54:07;;;;;;;12.70;7.13;;;;;;;5.61;86.84;100768.91;10136451;28;20517;-71
2020/12/14 10:59:03;;;;;;;8.68;5.65;;;;;;;5.64;87.00;100761.00;10132438;28;20050;-70
2020/12/14 11:03:59;;;;;;;9.18;5.15;;;;;;;5.71;87.15;100766.13;10138930;28;20484;-70
2020/12/14 11:08:55;;;;;;;10.23;5.60;;;;;;;5.63;87.19;100756.66;10133187;28;20063;-68
2020/12/14 11:13:51;;;;;;;9.95;5.53;;;;;;;5.64;87.40;100752.88;10117318;28;20062;-71
2020/12/14 11:18:47;;;;;;;13.68;5.40;;;;;;;5.57;87.84;100752.41;10123671;28;20054;-71
2020/12/14 11:23:52;;;;;;;8.88;5.30;;;;;;;5.60;88.15;100745.59;10137137;28;20066;-72
2020/12/14 11:28:48;;;;;;;8.57;5.18;;;;;;;5.59;87.74;100755.63;10130471;28;20109;-71
2020/12/14 11:33:45;;;;;;;10.48;5.22;;;;;;;5.54;88.47;100741.28;10109196;28;20796;-71
2020/12/14 11:38:41;;;;;;;8.50;4.95;;;;;;;5.61;88.64;100758.06;10125209;28;20416;-70
2020/12/14 11:43:37;;;;;;;8.48;5.03;;;;;;;5.72;88.39;100747.94;10131751;28;20062;-71
2020/12/14 11:48:33;;;;;;;10.07;5.40;;;;;;;5.74;87.88;100751.19;10127435;28;20046;-70
2020/12/14 11:53:29;;;;;;;10.57;5.78;;;;;;;5.70;88.09;100751.72;10139984;28;20623;-70
2020/12/14 11:58:25;;;;;;;10.32;5.20;;;;;;;5.84;88.31;100757.31;10137385;28;20082;-69
2020/12/14 12:03:21;;;;;;;8.50;5.43;;;;;;;5.86;87.69;100743.47;10141662;28;20096;-69
2020/12/14 12:08:17;;;;;;;10.25;5.13;;;;;;;5.90;88.38;100733.66;10136916;28;20051;-69
2020/12/14 12:13:13;;;;;;;11.05;5.28;;;;;;;5.94;88.64;100764.59;10136434;28;20061;-68
2020/12/14 12:18:09;;;;;;;10.70;5.43;;;;;;;5.94;88.52;100756.47;10135864;28;20057;-68
2020/12/14 12:23:05;;;;;;;9.52;5.63;;;;;;;6.02;87.92;100750.41;10122182;28;20566;-69
2020/12/14 12:28:02;;;;;;;15.25;5.57;;;;;;;6.11;87.83;100762.25;10127632;28;20046;-69
2020/12/14 12:32:58;;;;;;;10.48;6.03;;;;;;;6.13;88.49;100758.44;10120678;28;20089;-70
2020/12/14 12:37:54;;;;;;;11.73;5.95;;;;;;;6.18;88.15;100755.69;10130801;28;20493;-70
2020/12/14 12:42:51;;;;;;;11.60;5.88;;;;;;;6.19;87.55;100757.28;10136686;28;20057;-68
2020/12/14 12:47:47;;;;;;;9.75;5.72;;;;;;;6.24;87.70;100749.09;10142221;28;20046;-69
2020/12/14 12:52:43;;;;;;;9.70;5.03;;;;;;;6.30;87.89;100762.31;10138394;28;20064;-71
2020/12/14 12:57:40;;;;;;;12.43;5.25;;;;;;;6.35;87.83;100745.16;10126108;28;20137;-70
2020/12/14 13:02:36;;;;;;;8.60;5.05;;;;;;;6.31;87.83;100739.53;10126414;28;20054;-68
2020/12/14 13:07:34;;;;;;;10.38;5.70;;;;;;;6.27;88.49;100748.53;10116741;28;20125;-70
2020/12/14 13:12:30;;;;;;;11.30;5.68;;;;;;;6.34;88.55;100749.00;10137564;28;20061;-71
2020/12/14 13:17:26;;;;;;;13.68;5.07;;;;;;;6.42;88.51;100745.63;10138467;28;20054;-69
2020/12/14 13:22:23;;;;;;;8.35;4.97;;;;;;;6.43;88.93;100754.56;10132407;28;20061;-69
2020/12/14 13:27:19;;;;;;;9.05;4.70;;;;;;;6.43;89.11;100752.69;10119964;28;20093;-69
2020/12/14 13:32:15;;;;;;;9.85;4.80;;;;;;;6.55;88.89;100754.19;10131770;28;20054;-69
2020/12/14 13:37:11;;;;;;;8.07;4.70;;;;;;;6.61;88.75;100753.03;10127608;28;20057;-69
2020/12/14 13:42:07;;;;;;;8.70;4.45;;;;;;;6.64;88.54;100738.88;10129560;28;20437;-69
2020/12/14 13:47:03;;;;;;;13.60;5.93;;;;;;;6.69;88.52;100738.81;10140031;28;20054;-69
2020/12/14 13:51:59;;;;;;;10.07;4.50;;;;;;;6.74;88.36;100752.31;10134117;28;20050;-69
2020/12/14 13:56:57;;;;;;;10.35;4.20;;;;;;;6.80;88.96;100744.91;10127072;28;20113;-69
2020/12/14 14:01:53;;;;;;;10.52;4.28;;;;;;;6.80;88.33;100751.16;10133951;28;20095;-69
2020/12/14 14:06:49;;;;;;;11.65;4.38;;;;;;;6.80;88.51;100751.16;10131388;28;20174;-67
2020/12/14 14:11:50;;;;;;;8.45;4.10;;;;;;;6.86;88.70;100766.28;10130307;28;20088;-69
2020/12/14 14:16:57;;;;;;;9.50;4.28;;;;;;;6.80;88.66;100756.59;10111374;28;20050;-68
2020/12/14 14:21:54;;;;;;;13.27;4.72;;;;;;;6.97;88.27;100771.59;10116929;28;20053;-69
2020/12/14 14:26:55;;;;;;;7.30;3.78;;;;;;;6.98;88.25;100773.22;10110774;28;20055;-67
2020/12/14 14:31:55;;;;;;;8.07;3.72;;;;;;;7.02;88.27;100779.69;10133404;28;20144;-69
2020/12/14 14:36:52;;;;;;;7.72;4.20;;;;;;;7.08;88.22;100783.97;10126888;28;20160;-68
2020/12/14 14:41:50;;;;;;;13.55;5.07;;;;;;;7.11;88.15;100799.69;10137856;28;20518;-70
2020/12/14 14:46:48;;;;;;;8.77;4.00;;;;;;;7.13;88.29;100802.94;10137802;28;20042;-68
2020/12/14 14:51:48;;;;;;;10.18;5.75;;;;;;;7.20;88.53;100797.13;10135451;28;20106;-69
2020/12/14 14:56:44;;;;;;;9.20;4.32;;;;;;;7.11;88.50;100810.56;10124296;28;20564;-68
2020/12/14 15:01:41;;;;;;;9.45;4.80;;;;;;;7.17;88.50;100814.81;10128070;28;20070;-71
2020/12/14 15:06:38;;;;;;;10.73;4.70;;;;;;;7.22;88.20;100811.22;10127939;28;20082;-67
2020/12/14 15:11:37;;;;;;;10.70;4.72;;;;;;;7.25;88.19;100810.66;10130060;28;20046;-68
2020/12/14 15:16:33;;;;;;;11.18;5.38;;;;;;;7.17;88.43;100812.09;10113308;28;20113;-66
2020/12/14 15:21:29;;;;;;;8.15;5.18;;;;;;;7.27;88.88;100822.84;10133409;28;20106;-69
2020/12/14 15:26:26;;;;;;;8.82;5.22;;;;;;;7.27;88.94;100820.13;10135101;28;20548;-69
2020/12/14 15:31:30;;;;;;;10.65;5.72;;;;;;;7.29;88.99;100823.38;10130193;28;20531;-69
2020/12/14 15:36:26;;;;;;;12.02;5.95;;;;;;;7.30;88.96;100830.41;10125950;28;20058;-69
2020/12/14 15:41:23;;;;;;;8.82;5.15;;;;;;;7.40;88.75;100834.09;10128952;28;20161;-68
2020/12/14 15:46:19;;;;;;;14.05;6.00;;;;;;;7.45;88.35;100831.31;10130508;28;20102;-67
2020/12/14 15:51:16;;;;;;;10.27;5.25;;;;;;;7.53;88.80;100839.63;10132227;28;20100;-68
2020/12/14 15:56:19;;;;;;;11.82;5.93;;;;;;;7.56;88.68;100841.75;10115435;28;20838;-68
2020/12/14 16:01:17;;;;;;;11.77;6.00;;;;;;;7.54;88.78;100840.41;10142980;28;20058;-70
2020/12/14 16:06:17;;;;;;;9.82;6.40;;;;;;;7.57;88.17;100839.84;10119340;28;20138;-70
2020/12/14 16:11:13;;;;;;;9.00;5.30;;;;;;;7.60;88.39;100847.41;10129351;28;20097;-68
2020/12/14 16:16:13;;;;;;;9.10;5.60;;;;;;;7.61;88.71;100837.34;10132240;28;20572;-68
2020/12/14 16:21:09;;;;;;;10.38;5.30;;;;;;;7.61;88.55;100834.63;10118056;28;20483;-68
2020/12/14 16:26:05;;;;;;;8.52;5.72;;;;;;;7.60;88.39;100839.25;10115081;28;20674;-68
2020/12/14 16:31:01;;;;;;;12.13;6.22;;;;;;;7.60;88.49;100844.69;10130268;28;20081;-69
2020/12/14 16:35:58;;;;;;;12.20;5.75;;;;;;;7.64;88.33;100840.28;10132199;28;20731;-69
2020/12/14 16:40:55;;;;;;;11.88;6.68;;;;;;;7.64;88.57;100844.94;10110420;28;20133;-70
2020/12/14 16:45:51;;;;;;;10.02;6.00;;;;;;;7.65;88.40;100847.34;10130553;28;20055;-70
2020/12/14 16:50:47;;;;;;;8.50;5.70;;;;;;;7.71;88.37;100846.16;10125172;28;20061;-69
2020/12/14 16:55:43;;;;;;;11.10;6.15;;;;;;;7.73;88.40;100843.97;10118405;28;20043;-70
2020/12/14 17:00:40;;;;;;;9.57;6.47;;;;;;;7.71;88.16;100848.88;10115402;28;20133;-68
2020/12/14 17:05:41;;;;;;;12.52;6.35;;;;;;;7.74;87.97;100853.72;10130492;28;20049;-68
2020/12/14 17:10:38;;;;;;;11.00;5.97;;;;;;;7.77;87.82;100855.88;10108280;28;20050;-68
2020/12/14 17:15:34;;;;;;;11.25;5.55;;;;;;;7.75;87.83;100849.94;10132825;28;20518;-68
2020/12/14 17:20:30;;;;;;;10.05;6.65;;;;;;;7.83;87.79;100859.31;10130599;28;20057;-69
2020/12/14 17:25:26;;;;;;;9.95;6.40;;;;;;;7.84;87.57;100862.84;10135908;28;20102;-68
2020/12/14 17:30:22;;;;;;;11.48;6.38;;;;;;;7.82;87.91;100878.66;10117721;28;20529;-67
2020/12/14 17:35:18;;;;;;;9.45;6.47;;;;;;;7.82;87.82;100873.22;10113721;28;20173;-66
2020/12/14 17:40:14;;;;;;;8.75;6.47;;;;;;;7.87;87.66;100865.00;10136311;28;20047;-66
2020/12/14 17:45:10;;;;;;;10.57;6.63;;;;;;;7.87;87.24;100870.44;10134557;28;20050;-66
2020/12/14 17:50:07;;;;;;;10.80;6.28;;;;;;;7.88;87.32;100866.59;10132262;28;20057;-66
2020/12/14 17:55:04;;;;;;;11.50;6.72;;;;;;;7.82;88.07;100874.06;10130225;28;20518;-65
2020/12/14 18:00:04;;;;;;;10.63;7.65;;;;;;;7.83;87.89;100885.75;10132685;28;20042;-67
2020/12/14 18:05:00;;;;;;;10.85;7.65;;;;;;;7.88;88.00;100902.81;10135992;28;20072;-68
2020/12/14 18:10:03;;;;;;;14.90;8.07;;;;;;;7.86;88.41;100912.38;10128135;28;20054;-67
2020/12/14 18:14:59;;;;;;;12.90;7.60;;;;;;;7.92;87.92;100924.81;10118701;28;20070;-66
2020/12/14 18:19:55;;;;;;;12.40;8.27;;;;;;;7.99;87.75;100906.19;10126804;28;20050;-66
2020/12/14 18:24:51;;;;;;;13.68;8.57;;;;;;;7.96;88.00;100906.75;10125309;28;20108;-66
2020/12/14 18:29:47;;;;;;;13.93;8.43;;;;;;;7.96;87.68;100913.03;10124928;28;20089;-66
2020/12/14 18:52:11;;;;;;;12.65;8.85;;;;;;;7.88;88.14;100904.72;10120585;28;20085;-67
2020/12/14 19:33:47;;;;;;;16.97;9.77;;;;;;;7.80;88.02;100909.72;10120328;28;20050;-68
2020/12/14 19:44:48;;;;;;;12.52;7.95;;;;;;;7.75;87.42;100912.53;10134695;28;20077;-67
2020/12/14 21:24:46;;;;;;;6.95;4.07;;;;;;;7.78;83.85;100938.34;10112310;28;20164;-68
2020/12/14 21:29:53;;;;;;;8.38;4.28;;;;;;;7.76;83.87;100924.22;10110029;28;20042;-67
2020/12/14 21:34:50;;;;;;;7.22;3.53;;;;;;;7.73;83.30;100933.78;10115788;28;20061;-68
2020/12/14 21:39:46;;;;;;;8.52;3.33;;;;;;;7.71;83.93;100927.81;10117707;28;21083;-70
2020/12/14 21:44:42;;;;;;;8.77;3.63;;;;;;;7.78;83.00;100928.25;10124305;28;20057;-70
2020/12/14 21:49:39;;;;;;;9.48;3.55;;;;;;;7.80;82.95;100936.94;10124066;28;20061;-68
2020/12/14 21:54:35;;;;;;;7.53;3.45;;;;;;;7.73;82.58;100941.94;10122887;28;20498;-68
2020/12/14 21:59:31;;;;;;;8.48;3.60;;;;;;;7.73;82.18;100936.50;10135996;28;20072;-68
2020/12/14 22:04:27;;;;;;;7.28;3.22;;;;;;;7.68;82.26;100944.75;10134014;28;20115;-68
2020/12/14 22:09:24;;;;;;;6.95;3.17;;;;;;;7.59;82.12;100957.38;10132680;28;20057;-68
2020/12/14 22:14:20;;;;;;;5.65;3.05;;;;;;;7.62;82.28;100943.19;10119999;28;20062;-68
2020/12/14 22:19:16;;;;;;;7.10;3.45;;;;;;;7.55;81.59;100926.41;10110512;28;20050;-73
2020/12/14 22:24:12;;;;;;;6.13;3.08;;;;;;;7.43;81.71;100924.13;10119704;28;20073;-67
2020/12/14 22:29:08;;;;;;;9.13;2.90;;;;;;;7.37;82.19;100938.88;10098563;28;20057;-67
2020/12/14 22:34:04;;;;;;;5.18;2.72;;;;;;;7.27;82.08;100923.47;10117156;28;20060;-66
2020/12/14 22:39:04;;;;;;;6.07;2.70;;;;;;;7.25;81.94;100914.81;10118671;28;20250;-69
2020/12/14 22:44:00;;;;;;;8.27;2.72;;;;;;;7.30;81.93;100925.63;10127662;28;20182;-68
2020/12/14 22:48:56;;;;;;;4.30;2.30;;;;;;;7.31;81.38;100932.69;10129983;28;20159;-67
2020/12/14 22:53:52;;;;;;;5.55;2.58;;;;;;;7.35;81.99;100938.34;10134031;28;20117;-71
2020/12/14 22:58:48;;;;;;;4.70;2.50;;;;;;;7.34;81.04;100940.25;10120886;28;20150;-69
2020/12/14 23:03:44;;;;;;;5.75;2.55;;;;;;;7.29;80.50;100948.50;10111942;28;20054;-67
2020/12/14 23:08:40;;;;;;;5.70;2.55;;;;;;;7.32;80.44;100964.22;10118001;28;20050;-67
2020/12/14 23:13:36;;;;;;;6.20;2.75;;;;;;;7.31;80.70;100962.63;10111703;28;20141;-68
2020/12/14 23:18:32;;;;;;;5.15;2.42;;;;;;;7.38;79.78;100946.75;10124636;28;20102;-70
2020/12/14 23:23:29;;;;;;;6.85;2.75;;;;;;;7.40;79.77;100930.13;10126418;28;20102;-66
2020/12/14 23:28:25;;;;;;;5.15;2.20;;;;;;;7.41;79.34;100937.19;10124978;28;20177;-69
2020/12/14 23:33:21;;;;;;;4.80;2.20;;;;;;;7.37;78.91;100928.78;10116546;28;20059;-69
2020/12/14 23:38:18;;;;;;;8.05;2.42;;;;;;;7.35;78.64;100939.16;10118665;28;20055;-70
2020/12/14 23:43:14;;;;;;;6.78;2.67;;;;;;;7.34;78.31;100940.25;10121707;28;20061;-72
2020/12/14 23:48:10;;;;;;;4.68;2.15;;;;;;;7.28;78.31;100946.84;10134910;28;20054;-70
2020/12/14 23:53:06;;;;;;;5.72;2.38;;;;;;;7.27;78.08;100950.69;10129680;28;20059;-70
2020/12/14 23:58:02;;;;;;;5.43;2.38;;;;;;;7.28;77.87;100952.28;10112518;28;20114;-72
